sensor_id;sensor_type;location;lat;lon;timestamp;temperature;humidity
6174;DHT22;3120;48.796;9.796;2022-09-30T00:01:08;7.00;99.90
6174;DHT22;3120;48.796;9.796;2022-09-30T00:03:34;7.00;99.90
6174;DHT22;3120;48.796;9.796;2022-09-30T00:06:05;7.00;99.90
6174;DHT22;3120;48.796;9.796;2022-09-30T00:08:31;7.00;99.90
6174;DHT22;3120;48.796;9.796;2022-09-30T00:11:02;7.00;99.90
6174;DHT22;3120;48.796;9.796;2022-09-30T00:13:29;7.00;99.90
6174;DHT22;3120;48.796;9.796;2022-09-30T00:15:55;6.90;99.90
6174;DHT22;3120;48.796;9.796;2022-09-30T00:18:20;7.00;99.90
6174;DHT22;3120;48.796;9.796;2022-09-30T00:20:46;6.90;99.90
6174;DHT22;3120;48.796;9.796;2022-09-30T00:23:12;6.70;99.90
6174;DHT22;3120;48.796;9.796;2022-09-30T00:25:37;6.70;99.90
6174;DHT22;3120;48.796;9.796;2022-09-30T00:28:03;6.70;99.90
6174;DHT22;3120;48.796;9.796;2022-09-30T00:30:29;6.80;99.90
6174;DHT22;3120;48.796;9.796;2022-09-30T00:32:54;6.70;99.90
6174;DHT22;3120;48.796;9.796;2022-09-30T00:35:20;6.70;99.90
6174;DHT22;3120;48.796;9.796;2022-09-30T00:37:46;6.70;99.90
6174;DHT22;3120;48.796;9.796;2022-09-30T00:40:12;6.50;99.90
6174;DHT22;3120;48.796;9.796;2022-09-30T00:42:40;6.50;99.90
6174;DHT22;3120;48.796;9.796;2022-09-30T00:45:09;6.40;99.90
6174;DHT22;3120;48.796;9.796;2022-09-30T00:48:03;6.40;99.90
6174;DHT22;3120;48.796;9.796;2022-09-30T00:58:32;6.30;99.90
6174;DHT22;3120;48.796;9.796;2022-09-30T01:01:01;6.30;99.90
6174;DHT22;3120;48.796;9.796;2022-09-30T01:03:31;6.20;99.90
6174;DHT22;3120;48.796;9.796;2022-09-30T01:05:58;6.20;99.90
6174;DHT22;3120;48.796;9.796;2022-09-30T01:08:24;6.30;99.90
6174;DHT22;3120;48.796;9.796;2022-09-30T01:10:50;6.30;99.90
6174;DHT22;3120;48.796;9.796;2022-09-30T01:13:17;6.20;99.90
6174;DHT22;3120;48.796;9.796;2022-09-30T01:24:55;6.10;99.90
6174;DHT22;3120;48.796;9.796;2022-09-30T01:33:47;5.90;99.90
6174;DHT22;3120;48.796;9.796;2022-09-30T01:42:32;6.00;99.90
6174;DHT22;3120;48.796;9.796;2022-09-30T01:47:55;6.00;99.90
6174;DHT22;3120;48.796;9.796;2022-09-30T01:55:35;6.00;99.90
6174;DHT22;3120;48.796;9.796;2022-09-30T01:58:14;5.90;99.90
6174;DHT22;3120;48.796;9.796;2022-09-30T02:00:43;6.00;99.90
6174;DHT22;3120;48.796;9.796;2022-09-30T02:03:32;5.80;99.90
6174;DHT22;3120;48.796;9.796;2022-09-30T02:06:04;5.70;99.90
6174;DHT22;3120;48.796;9.796;2022-09-30T02:08:46;5.60;99.90
6174;DHT22;3120;48.796;9.796;2022-09-30T02:11:16;5.70;99.90
6174;DHT22;3120;48.796;9.796;2022-09-30T02:13:44;5.60;99.90
6174;DHT22;3120;48.796;9.796;2022-09-30T02:16:19;5.60;99.90
6174;DHT22;3120;48.796;9.796;2022-09-30T02:18:50;5.60;99.90
6174;DHT22;3120;48.796;9.796;2022-09-30T02:21:22;5.60;99.90
6174;DHT22;3120;48.796;9.796;2022-09-30T02:23:52;5.70;99.90
6174;DHT22;3120;48.796;9.796;2022-09-30T02:26:24;5.60;99.90
6174;DHT22;3120;48.796;9.796;2022-09-30T02:28:57;5.70;99.90
6174;DHT22;3120;48.796;9.796;2022-09-30T02:31:24;5.70;99.90
6174;DHT22;3120;48.796;9.796;2022-09-30T02:34:07;5.70;99.90
6174;DHT22;3120;48.796;9.796;2022-09-30T02:37:25;5.70;99.90
6174;DHT22;3120;48.796;9.796;2022-09-30T02:39:45;5.70;99.90
6174;DHT22;3120;48.796;9.796;2022-09-30T02:42:17;5.70;99.90
6174;DHT22;3120;48.796;9.796;2022-09-30T02:44:48;5.70;99.90
6174;DHT22;3120;48.796;9.796;2022-09-30T02:47:25;5.70;99.90
6174;DHT22;3120;48.796;9.796;2022-09-30T02:55:18;5.60;99.90
6174;DHT22;3120;48.796;9.796;2022-09-30T03:00:14;5.50;99.90
6174;DHT22;3120;48.796;9.796;2022-09-30T03:02:41;5.50;99.90
6174;DHT22;3120;48.796;9.796;2022-09-30T03:05:07;5.40;99.90
6174;DHT22;3120;48.796;9.796;2022-09-30T03:07:34;5.40;99.90
6174;DHT22;3120;48.796;9.796;2022-09-30T03:10:00;5.40;99.90
6174;DHT22;3120;48.796;9.796;2022-09-30T03:15:44;5.40;99.90
6174;DHT22;3120;48.796;9.796;2022-09-30T03:30:01;5.40;99.90
6174;DHT22;3120;48.796;9.796;2022-09-30T03:32:51;5.40;99.90
6174;DHT22;3120;48.796;9.796;2022-09-30T03:38:10;5.40;99.90
6174;DHT22;3120;48.796;9.796;2022-09-30T03:40:56;5.40;99.90
6174;DHT22;3120;48.796;9.796;2022-09-30T03:44:05;5.40;99.90
6174;DHT22;3120;48.796;9.796;2022-09-30T03:46:41;5.30;99.90
6174;DHT22;3120;48.796;9.796;2022-09-30T03:49:14;5.30;99.90
6174;DHT22;3120;48.796;9.796;2022-09-30T03:51:43;5.30;99.90
6174;DHT22;3120;48.796;9.796;2022-09-30T03:54:10;5.20;99.90
6174;DHT22;3120;48.796;9.796;2022-09-30T03:56:38;5.30;99.90
6174;DHT22;3120;48.796;9.796;2022-09-30T03:59:24;5.40;99.90
6174;DHT22;3120;48.796;9.796;2022-09-30T04:01:52;5.40;99.90
6174;DHT22;3120;48.796;9.796;2022-09-30T04:04:18;5.50;99.90
6174;DHT22;3120;48.796;9.796;2022-09-30T04:06:44;5.50;99.90
6174;DHT22;3120;48.796;9.796;2022-09-30T04:09:10;5.50;99.90
6174;DHT22;3120;48.796;9.796;2022-09-30T04:11:35;5.50;99.90
6174;DHT22;3120;48.796;9.796;2022-09-30T04:14:01;5.50;99.90
6174;DHT22;3120;48.796;9.796;2022-09-30T04:16:30;5.60;99.90
6174;DHT22;3120;48.796;9.796;2022-09-30T04:18:56;5.50;99.90
6174;DHT22;3120;48.796;9.796;2022-09-30T04:21:22;5.40;99.90
6174;DHT22;3120;48.796;9.796;2022-09-30T04:23:48;5.40;99.90
6174;DHT22;3120;48.796;9.796;2022-09-30T04:26:16;5.40;99.90
6174;DHT22;3120;48.796;9.796;2022-09-30T04:28:42;5.30;99.90
6174;DHT22;3120;48.796;9.796;2022-09-30T04:31:12;5.30;99.90
6174;DHT22;3120;48.796;9.796;2022-09-30T04:33:39;6.40;99.90
6174;DHT22;3120;48.796;9.796;2022-09-30T04:36:05;5.30;99.90
6174;DHT22;3120;48.796;9.796;2022-09-30T04:38:31;5.30;99.90
6174;DHT22;3120;48.796;9.796;2022-09-30T04:41:01;5.30;99.90
6174;DHT22;3120;48.796;9.796;2022-09-30T04:43:28;5.20;99.90
6174;DHT22;3120;48.796;9.796;2022-09-30T04:45:54;5.10;99.90
6174;DHT22;3120;48.796;9.796;2022-09-30T04:48:19;5.10;99.90
6174;DHT22;3120;48.796;9.796;2022-09-30T04:50:47;5.10;99.90
6174;DHT22;3120;48.796;9.796;2022-09-30T04:53:13;5.10;99.90
6174;DHT22;3120;48.796;9.796;2022-09-30T04:55:40;5.10;99.90
6174;DHT22;3120;48.796;9.796;2022-09-30T04:58:05;5.00;99.90
6174;DHT22;3120;48.796;9.796;2022-09-30T05:00:31;5.00;99.90
6174;DHT22;3120;48.796;9.796;2022-09-30T05:02:56;4.90;99.90
6174;DHT22;3120;48.796;9.796;2022-09-30T05:05:22;4.90;99.90
6174;DHT22;3120;48.796;9.796;2022-09-30T05:07:48;5.00;99.90
6174;DHT22;3120;48.796;9.796;2022-09-30T05:10:13;4.90;99.90
6174;DHT22;3120;48.796;9.796;2022-09-30T05:12:40;4.90;99.90
6174;DHT22;3120;48.796;9.796;2022-09-30T05:15:07;4.90;99.90
6174;DHT22;3120;48.796;9.796;2022-09-30T05:17:33;4.80;99.90
6174;DHT22;3120;48.796;9.796;2022-09-30T05:19:59;4.80;99.90
6174;DHT22;3120;48.796;9.796;2022-09-30T05:22:25;4.90;99.90
6174;DHT22;3120;48.796;9.796;2022-09-30T05:24:51;4.80;99.90
6174;DHT22;3120;48.796;9.796;2022-09-30T05:27:20;4.80;99.90
6174;DHT22;3120;48.796;9.796;2022-09-30T05:29:46;4.80;99.90
6174;DHT22;3120;48.796;9.796;2022-09-30T05:32:11;4.80;99.90
6174;DHT22;3120;48.796;9.796;2022-09-30T05:34:37;4.80;99.90
6174;DHT22;3120;48.796;9.796;2022-09-30T05:37:04;4.80;99.90
6174;DHT22;3120;48.796;9.796;2022-09-30T05:39:32;4.80;99.90
6174;DHT22;3120;48.796;9.796;2022-09-30T05:41:57;4.90;99.90
6174;DHT22;3120;48.796;9.796;2022-09-30T05:44:24;4.90;99.90
6174;DHT22;3120;48.796;9.796;2022-09-30T05:46:49;4.80;99.90
6174;DHT22;3120;48.796;9.796;2022-09-30T05:49:15;4.80;99.90
6174;DHT22;3120;48.796;9.796;2022-09-30T05:51:41;4.70;99.90
6174;DHT22;3120;48.796;9.796;2022-09-30T05:54:08;4.70;99.90
6174;DHT22;3120;48.796;9.796;2022-09-30T05:56:34;4.70;99.90
6174;DHT22;3120;48.796;9.796;2022-09-30T05:59:00;4.70;99.90
6174;DHT22;3120;48.796;9.796;2022-09-30T06:01:27;4.70;99.90
6174;DHT22;3120;48.796;9.796;2022-09-30T06:03:52;4.70;99.90
6174;DHT22;3120;48.796;9.796;2022-09-30T06:06:18;4.70;99.90
6174;DHT22;3120;48.796;9.796;2022-09-30T06:08:44;4.90;99.90
6174;DHT22;3120;48.796;9.796;2022-09-30T06:11:13;4.80;99.90
6174;DHT22;3120;48.796;9.796;2022-09-30T06:13:42;4.90;99.90
6174;DHT22;3120;48.796;9.796;2022-09-30T06:16:09;5.20;99.90
6174;DHT22;3120;48.796;9.796;2022-09-30T06:18:35;5.00;99.90
6174;DHT22;3120;48.796;9.796;2022-09-30T06:21:03;5.10;99.90
6174;DHT22;3120;48.796;9.796;2022-09-30T06:23:30;5.10;99.90
6174;DHT22;3120;48.796;9.796;2022-09-30T06:25:56;5.10;99.90
6174;DHT22;3120;48.796;9.796;2022-09-30T06:28:22;5.20;99.90
6174;DHT22;3120;48.796;9.796;2022-09-30T06:30:49;5.20;99.90
6174;DHT22;3120;48.796;9.796;2022-09-30T06:33:15;5.30;99.90
6174;DHT22;3120;48.796;9.796;2022-09-30T06:35:42;5.40;99.90
6174;DHT22;3120;48.796;9.796;2022-09-30T06:38:09;5.40;99.90
6174;DHT22;3120;48.796;9.796;2022-09-30T06:40:35;5.50;99.90
6174;DHT22;3120;48.796;9.796;2022-09-30T06:43:02;5.60;99.90
6174;DHT22;3120;48.796;9.796;2022-09-30T06:45:28;5.70;99.90
6174;DHT22;3120;48.796;9.796;2022-09-30T06:48:01;5.80;99.90
6174;DHT22;3120;48.796;9.796;2022-09-30T06:50:28;5.70;99.90
6174;DHT22;3120;48.796;9.796;2022-09-30T06:52:58;5.80;99.90
6174;DHT22;3120;48.796;9.796;2022-09-30T06:55:25;5.90;99.90
6174;DHT22;3120;48.796;9.796;2022-09-30T06:57:53;6.00;99.90
6174;DHT22;3120;48.796;9.796;2022-09-30T07:00:20;6.10;99.90
6174;DHT22;3120;48.796;9.796;2022-09-30T07:02:46;6.20;99.90
6174;DHT22;3120;48.796;9.796;2022-09-30T07:05:13;6.40;99.90
6174;DHT22;3120;48.796;9.796;2022-09-30T07:07:40;6.50;99.90
6174;DHT22;3120;48.796;9.796;2022-09-30T07:10:06;6.60;99.90
6174;DHT22;3120;48.796;9.796;2022-09-30T07:12:33;6.80;99.90
6174;DHT22;3120;48.796;9.796;2022-09-30T07:14:59;7.00;99.90
6174;DHT22;3120;48.796;9.796;2022-09-30T07:17:26;7.10;99.90
6174;DHT22;3120;48.796;9.796;2022-09-30T07:19:51;7.30;99.90
6174;DHT22;3120;48.796;9.796;2022-09-30T07:22:18;7.40;99.90
6174;DHT22;3120;48.796;9.796;2022-09-30T07:24:58;7.90;99.90
6174;DHT22;3120;48.796;9.796;2022-09-30T07:27:28;7.70;99.90
6174;DHT22;3120;48.796;9.796;2022-09-30T07:29:56;7.80;99.90
6174;DHT22;3120;48.796;9.796;2022-09-30T07:32:23;7.90;99.90
6174;DHT22;3120;48.796;9.796;2022-09-30T07:34:48;8.00;99.90
6174;DHT22;3120;48.796;9.796;2022-09-30T07:37:16;8.00;99.90
6174;DHT22;3120;48.796;9.796;2022-09-30T07:39:44;8.10;99.90
6174;DHT22;3120;48.796;9.796;2022-09-30T07:42:12;8.10;99.90
6174;DHT22;3120;48.796;9.796;2022-09-30T07:44:39;8.10;99.90
6174;DHT22;3120;48.796;9.796;2022-09-30T07:47:07;8.20;99.90
6174;DHT22;3120;48.796;9.796;2022-09-30T07:49:34;8.40;99.90
6174;DHT22;3120;48.796;9.796;2022-09-30T07:52:00;8.40;99.90
6174;DHT22;3120;48.796;9.796;2022-09-30T07:54:28;8.30;99.90
6174;DHT22;3120;48.796;9.796;2022-09-30T07:56:56;8.40;99.90
6174;DHT22;3120;48.796;9.796;2022-09-30T07:59:22;8.40;99.90
6174;DHT22;3120;48.796;9.796;2022-09-30T08:01:48;8.50;99.90
6174;DHT22;3120;48.796;9.796;2022-09-30T08:04:15;8.60;99.90
6174;DHT22;3120;48.796;9.796;2022-09-30T08:06:46;8.60;99.90
6174;DHT22;3120;48.796;9.796;2022-09-30T08:09:14;8.80;99.90
6174;DHT22;3120;48.796;9.796;2022-09-30T08:11:40;8.90;99.90
6174;DHT22;3120;48.796;9.796;2022-09-30T08:14:14;9.00;99.90
6174;DHT22;3120;48.796;9.796;2022-09-30T08:16:40;9.10;99.90
6174;DHT22;3120;48.796;9.796;2022-09-30T08:19:06;9.40;99.90
6174;DHT22;3120;48.796;9.796;2022-09-30T08:21:35;10.60;99.90
6174;DHT22;3120;48.796;9.796;2022-09-30T08:24:02;11.00;99.90
6174;DHT22;3120;48.796;9.796;2022-09-30T08:26:28;9.60;90.00
6174;DHT22;3120;48.796;9.796;2022-09-30T08:28:54;9.50;99.90
6174;DHT22;3120;48.796;9.796;2022-09-30T08:31:21;9.50;99.90
6174;DHT22;3120;48.796;9.796;2022-09-30T08:33:47;9.50;99.90
6174;DHT22;3120;48.796;9.796;2022-09-30T08:36:18;11.60;99.90
6174;DHT22;3120;48.796;9.796;2022-09-30T08:38:44;9.90;99.90
6174;DHT22;3120;48.796;9.796;2022-09-30T08:44:24;10.20;99.90
6174;DHT22;3120;48.796;9.796;2022-09-30T08:52:03;10.90;23.40
6174;DHT22;3120;48.796;9.796;2022-09-30T08:54:33;10.90;17.10
6174;DHT22;3120;48.796;9.796;2022-09-30T08:57:01;11.90;32.90
6174;DHT22;3120;48.796;9.796;2022-09-30T08:59:44;10.90;58.70
6174;DHT22;3120;48.796;9.796;2022-09-30T09:02:31;11.00;28.50
6174;DHT22;3120;48.796;9.796;2022-09-30T09:05:01;11.10;43.10
6174;DHT22;3120;48.796;9.796;2022-09-30T09:07:41;11.30;46.60
6174;DHT22;3120;48.796;9.796;2022-09-30T09:12:51;11.80;1.00
6174;DHT22;3120;48.796;9.796;2022-09-30T09:18:07;12.20;1.00
6174;DHT22;3120;48.796;9.796;2022-09-30T09:20:49;12.20;1.00
6174;DHT22;3120;48.796;9.796;2022-09-30T09:23:17;12.40;1.00
6174;DHT22;3120;48.796;9.796;2022-09-30T09:25:43;13.90;1.00
6174;DHT22;3120;48.796;9.796;2022-09-30T09:30:59;12.40;1.00
6174;DHT22;3120;48.796;9.796;2022-09-30T09:33:31;12.20;1.00
6174;DHT22;3120;48.796;9.796;2022-09-30T09:36:13;12.20;1.00
6174;DHT22;3120;48.796;9.796;2022-09-30T09:47:10;12.90;99.90
6174;DHT22;3120;48.796;9.796;2022-09-30T09:49:51;12.80;1.00
6174;DHT22;3120;48.796;9.796;2022-09-30T09:54:52;14.00;1.00
6174;DHT22;3120;48.796;9.796;2022-09-30T09:57:23;13.00;1.00
6174;DHT22;3120;48.796;9.796;2022-09-30T10:05:26;13.30;1.00
6174;DHT22;3120;48.796;9.796;2022-09-30T10:08:09;13.40;1.00
6174;DHT22;3120;48.796;9.796;2022-09-30T10:10:52;13.50;99.90
6174;DHT22;3120;48.796;9.796;2022-09-30T10:13:24;13.50;99.90
6174;DHT22;3120;48.796;9.796;2022-09-30T10:15:52;13.60;99.90
6174;DHT22;3120;48.796;9.796;2022-09-30T10:18:24;13.60;1.00
6174;DHT22;3120;48.796;9.796;2022-09-30T10:20:57;15.10;1.00
6174;DHT22;3120;48.796;9.796;2022-09-30T10:23:32;13.70;99.90
6174;DHT22;3120;48.796;9.796;2022-09-30T10:26:15;13.80;1.00
6174;DHT22;3120;48.796;9.796;2022-09-30T10:33:52;14.20;1.00
6174;DHT22;3120;48.796;9.796;2022-09-30T10:36:21;15.30;14.00
6174;DHT22;3120;48.796;9.796;2022-09-30T10:39:05;15.20;18.60
6174;DHT22;3120;48.796;9.796;2022-09-30T10:41:33;14.60;1.00
6174;DHT22;3120;48.796;9.796;2022-09-30T10:44:11;14.80;99.90
6174;DHT22;3120;48.796;9.796;2022-09-30T10:46:40;15.20;99.90
6174;DHT22;3120;48.796;9.796;2022-09-30T10:49:25;16.70;1.00
6174;DHT22;3120;48.796;9.796;2022-09-30T10:51:51;15.20;99.90
6174;DHT22;3120;48.796;9.796;2022-09-30T10:57:04;15.40;1.00
6174;DHT22;3120;48.796;9.796;2022-09-30T10:59:37;15.60;99.90
6174;DHT22;3120;48.796;9.796;2022-09-30T11:02:15;16.30;99.90
6174;DHT22;3120;48.796;9.796;2022-09-30T11:05:09;15.90;99.90
6174;DHT22;3120;48.796;9.796;2022-09-30T11:16:14;16.00;99.90
6174;DHT22;3120;48.796;9.796;2022-09-30T11:24:44;15.50;1.00
6174;DHT22;3120;48.796;9.796;2022-09-30T11:27:35;15.10;1.00
6174;DHT22;3120;48.796;9.796;2022-09-30T11:35:43;15.10;1.00
6174;DHT22;3120;48.796;9.796;2022-09-30T11:41:07;15.50;86.00
6174;DHT22;3120;48.796;9.796;2022-09-30T11:58:51;15.50;99.90
6174;DHT22;3120;48.796;9.796;2022-09-30T12:01:30;15.60;99.90
6174;DHT22;3120;48.796;9.796;2022-09-30T12:04:58;15.60;1.00
6174;DHT22;3120;48.796;9.796;2022-09-30T12:09:31;16.50;1.00
6174;DHT22;3120;48.796;9.796;2022-09-30T12:12:18;17.00;1.00
6174;DHT22;3120;48.796;9.796;2022-09-30T12:15:02;16.00;1.00
6174;DHT22;3120;48.796;9.796;2022-09-30T12:17:59;15.60;1.00
6174;DHT22;3120;48.796;9.796;2022-09-30T12:20:34;15.50;99.90
6174;DHT22;3120;48.796;9.796;2022-09-30T12:23:26;15.30;99.90
6174;DHT22;3120;48.796;9.796;2022-09-30T12:26:00;15.40;99.90
6174;DHT22;3120;48.796;9.796;2022-09-30T12:28:36;15.40;99.90
6174;DHT22;3120;48.796;9.796;2022-09-30T12:34:17;15.20;1.00
6174;DHT22;3120;48.796;9.796;2022-09-30T12:37:13;15.20;1.00
6174;DHT22;3120;48.796;9.796;2022-09-30T12:40:17;15.20;1.00
6174;DHT22;3120;48.796;9.796;2022-09-30T12:43:18;15.20;99.90
6174;DHT22;3120;48.796;9.796;2022-09-30T12:46:01;15.30;99.90
6174;DHT22;3120;48.796;9.796;2022-09-30T12:48:36;15.50;1.00
6174;DHT22;3120;48.796;9.796;2022-09-30T12:51:03;15.90;93.30
6174;DHT22;3120;48.796;9.796;2022-09-30T12:53:35;15.70;1.00
6174;DHT22;3120;48.796;9.796;2022-09-30T12:56:06;15.90;1.00
6174;DHT22;3120;48.796;9.796;2022-09-30T12:58:37;15.60;1.00
6174;DHT22;3120;48.796;9.796;2022-09-30T13:01:14;15.80;1.00
6174;DHT22;3120;48.796;9.796;2022-09-30T13:04:08;15.70;1.00
6174;DHT22;3120;48.796;9.796;2022-09-30T13:09:20;15.90;99.90
6174;DHT22;3120;48.796;9.796;2022-09-30T13:15:06;15.90;99.90
6174;DHT22;3120;48.796;9.796;2022-09-30T13:17:36;15.90;1.00
6174;DHT22;3120;48.796;9.796;2022-09-30T13:26:01;16.10;99.90
6174;DHT22;3120;48.796;9.796;2022-09-30T13:28:37;16.10;99.90
6174;DHT22;3120;48.796;9.796;2022-09-30T13:31:14;16.10;99.90
6174;DHT22;3120;48.796;9.796;2022-09-30T13:45:15;15.70;99.90
6174;DHT22;3120;48.796;9.796;2022-09-30T13:47:58;15.60;99.90
6174;DHT22;3120;48.796;9.796;2022-09-30T13:50:48;15.50;99.90
6174;DHT22;3120;48.796;9.796;2022-09-30T13:53:32;15.50;99.90
6174;DHT22;3120;48.796;9.796;2022-09-30T13:56:03;15.40;99.90
6174;DHT22;3120;48.796;9.796;2022-09-30T13:59:24;15.30;99.90
6174;DHT22;3120;48.796;9.796;2022-09-30T14:01:48;15.40;1.00
6174;DHT22;3120;48.796;9.796;2022-09-30T14:04:48;15.40;1.00
6174;DHT22;3120;48.796;9.796;2022-09-30T14:07:31;15.40;1.00
6174;DHT22;3120;48.796;9.796;2022-09-30T14:18:39;15.20;1.00
6174;DHT22;3120;48.796;9.796;2022-09-30T14:23:45;15.40;1.00
6174;DHT22;3120;48.796;9.796;2022-09-30T14:26:29;15.50;1.00
6174;DHT22;3120;48.796;9.796;2022-09-30T14:31:44;15.60;1.00
6174;DHT22;3120;48.796;9.796;2022-09-30T14:34:12;15.60;1.00
6174;DHT22;3120;48.796;9.796;2022-09-30T14:36:39;15.50;99.90
6174;DHT22;3120;48.796;9.796;2022-09-30T14:39:12;15.50;1.00
6174;DHT22;3120;48.796;9.796;2022-09-30T14:41:50;15.70;99.90
6174;DHT22;3120;48.796;9.796;2022-09-30T14:44:17;16.80;1.00
6174;DHT22;3120;48.796;9.796;2022-09-30T14:46:44;16.50;99.90
6174;DHT22;3120;48.796;9.796;2022-09-30T14:49:19;17.00;1.00
6174;DHT22;3120;48.796;9.796;2022-09-30T14:51:52;15.50;1.00
6174;DHT22;3120;48.796;9.796;2022-09-30T14:54:21;16.50;1.00
6174;DHT22;3120;48.796;9.796;2022-09-30T14:56:47;16.80;1.00
6174;DHT22;3120;48.796;9.796;2022-09-30T14:59:25;17.40;1.00
6174;DHT22;3120;48.796;9.796;2022-09-30T15:02:09;15.50;1.00
6174;DHT22;3120;48.796;9.796;2022-09-30T15:04:46;15.40;99.90
6174;DHT22;3120;48.796;9.796;2022-09-30T15:07:12;15.70;1.00
6174;DHT22;3120;48.796;9.796;2022-09-30T15:09:40;16.70;99.90
6174;DHT22;3120;48.796;9.796;2022-09-30T15:12:14;17.30;1.00
6174;DHT22;3120;48.796;9.796;2022-09-30T15:17:20;15.30;1.00
6174;DHT22;3120;48.796;9.796;2022-09-30T15:19:47;15.90;1.00
6174;DHT22;3120;48.796;9.796;2022-09-30T15:22:15;15.30;1.00
6174;DHT22;3120;48.796;9.796;2022-09-30T15:24:42;17.10;1.00
6174;DHT22;3120;48.796;9.796;2022-09-30T15:27:29;17.00;1.00
6174;DHT22;3120;48.796;9.796;2022-09-30T15:30:00;15.20;1.00
6174;DHT22;3120;48.796;9.796;2022-09-30T15:32:31;15.60;1.00
6174;DHT22;3120;48.796;9.796;2022-09-30T15:35:06;16.00;1.00
6174;DHT22;3120;48.796;9.796;2022-09-30T15:37:32;15.10;94.10
6174;DHT22;3120;48.796;9.796;2022-09-30T15:39:59;15.10;1.00
6174;DHT22;3120;48.796;9.796;2022-09-30T15:42:59;15.10;1.00
6174;DHT22;3120;48.796;9.796;2022-09-30T15:45:35;15.00;1.00
6174;DHT22;3120;48.796;9.796;2022-09-30T15:50:53;14.80;99.90
6174;DHT22;3120;48.796;9.796;2022-09-30T15:56:20;14.60;99.90
6174;DHT22;3120;48.796;9.796;2022-09-30T15:59:05;14.60;99.90
6174;DHT22;3120;48.796;9.796;2022-09-30T16:01:40;14.60;99.90
6174;DHT22;3120;48.796;9.796;2022-09-30T16:09:36;14.40;1.00
6174;DHT22;3120;48.796;9.796;2022-09-30T16:15:08;14.40;1.00
6174;DHT22;3120;48.796;9.796;2022-09-30T16:17:47;14.30;1.00
6174;DHT22;3120;48.796;9.796;2022-09-30T16:20:23;14.30;1.00
6174;DHT22;3120;48.796;9.796;2022-09-30T16:22:55;14.20;99.90
6174;DHT22;3120;48.796;9.796;2022-09-30T16:25:30;14.10;1.00
6174;DHT22;3120;48.796;9.796;2022-09-30T16:28:08;14.00;1.00
6174;DHT22;3120;48.796;9.796;2022-09-30T16:30:47;13.90;1.00
6174;DHT22;3120;48.796;9.796;2022-09-30T16:33:14;13.90;99.90
6174;DHT22;3120;48.796;9.796;2022-09-30T16:35:41;13.80;1.00
6174;DHT22;3120;48.796;9.796;2022-09-30T16:38:11;13.70;99.90
6174;DHT22;3120;48.796;9.796;2022-09-30T16:40:40;13.60;18.90
6174;DHT22;3120;48.796;9.796;2022-09-30T16:43:06;13.50;99.90
6174;DHT22;3120;48.796;9.796;2022-09-30T16:45:35;13.40;1.00
6174;DHT22;3120;48.796;9.796;2022-09-30T16:48:07;14.60;99.90
6174;DHT22;3120;48.796;9.796;2022-09-30T16:53:16;13.20;99.90
6174;DHT22;3120;48.796;9.796;2022-09-30T16:55:42;13.10;99.90
6174;DHT22;3120;48.796;9.796;2022-09-30T16:58:11;14.20;99.90
6174;DHT22;3120;48.796;9.796;2022-09-30T17:00:37;12.90;1.00
6174;DHT22;3120;48.796;9.796;2022-09-30T17:03:05;12.70;1.00
6174;DHT22;3120;48.796;9.796;2022-09-30T17:05:31;12.80;1.00
6174;DHT22;3120;48.796;9.796;2022-09-30T17:07:58;14.10;1.00
6174;DHT22;3120;48.796;9.796;2022-09-30T17:10:25;14.00;1.00
6174;DHT22;3120;48.796;9.796;2022-09-30T17:12:54;12.60;1.00
6174;DHT22;3120;48.796;9.796;2022-09-30T17:15:20;12.50;1.00
6174;DHT22;3120;48.796;9.796;2022-09-30T17:17:46;12.40;1.00
6174;DHT22;3120;48.796;9.796;2022-09-30T17:20:12;12.30;1.00
6174;DHT22;3120;48.796;9.796;2022-09-30T17:22:38;12.20;1.00
6174;DHT22;3120;48.796;9.796;2022-09-30T17:25:04;12.20;1.00
6174;DHT22;3120;48.796;9.796;2022-09-30T17:27:30;12.10;1.00
6174;DHT22;3120;48.796;9.796;2022-09-30T17:29:56;12.70;1.00
6174;DHT22;3120;48.796;9.796;2022-09-30T17:32:21;13.40;1.00
6174;DHT22;3120;48.796;9.796;2022-09-30T17:34:47;13.60;6.00
6174;DHT22;3120;48.796;9.796;2022-09-30T17:37:13;11.70;31.80
6174;DHT22;3120;48.796;9.796;2022-09-30T17:39:53;11.60;26.60
6174;DHT22;3120;48.796;9.796;2022-09-30T17:42:18;11.50;55.20
6174;DHT22;3120;48.796;9.796;2022-09-30T17:45:03;11.50;36.90
6174;DHT22;3120;48.796;9.796;2022-09-30T17:47:29;11.40;35.50
6174;DHT22;3120;48.796;9.796;2022-09-30T17:49:55;11.20;62.00
6174;DHT22;3120;48.796;9.796;2022-09-30T17:52:21;11.10;95.10
6174;DHT22;3120;48.796;9.796;2022-09-30T17:54:49;11.00;99.90
6174;DHT22;3120;48.796;9.796;2022-09-30T17:57:16;12.70;99.90
6174;DHT22;3120;48.796;9.796;2022-09-30T17:59:42;10.90;99.90
6174;DHT22;3120;48.796;9.796;2022-09-30T18:02:09;10.90;99.90
6174;DHT22;3120;48.796;9.796;2022-09-30T18:04:40;11.70;99.90
6174;DHT22;3120;48.796;9.796;2022-09-30T18:07:05;11.20;99.90
6174;DHT22;3120;48.796;9.796;2022-09-30T18:09:35;10.80;99.90
6174;DHT22;3120;48.796;9.796;2022-09-30T18:12:02;10.70;99.90
6174;DHT22;3120;48.796;9.796;2022-09-30T18:14:29;10.70;99.90
6174;DHT22;3120;48.796;9.796;2022-09-30T18:17:04;10.70;99.90
6174;DHT22;3120;48.796;9.796;2022-09-30T18:19:30;10.60;99.90
6174;DHT22;3120;48.796;9.796;2022-09-30T18:21:56;10.50;99.90
6174;DHT22;3120;48.796;9.796;2022-09-30T18:24:22;10.50;99.90
6174;DHT22;3120;48.796;9.796;2022-09-30T18:27:07;11.90;99.90
6174;DHT22;3120;48.796;9.796;2022-09-30T18:29:33;10.20;99.90
6174;DHT22;3120;48.796;9.796;2022-09-30T18:31:59;10.20;99.90
6174;DHT22;3120;48.796;9.796;2022-09-30T18:34:24;10.10;99.90
6174;DHT22;3120;48.796;9.796;2022-09-30T18:36:50;10.10;99.90
6174;DHT22;3120;48.796;9.796;2022-09-30T18:39:15;10.50;99.90
6174;DHT22;3120;48.796;9.796;2022-09-30T18:41:41;10.00;99.90
6174;DHT22;3120;48.796;9.796;2022-09-30T18:44:08;11.00;99.90
6174;DHT22;3120;48.796;9.796;2022-09-30T18:46:34;10.00;99.90
6174;DHT22;3120;48.796;9.796;2022-09-30T18:49:02;11.70;99.90
6174;DHT22;3120;48.796;9.796;2022-09-30T18:51:28;9.90;99.90
6174;DHT22;3120;48.796;9.796;2022-09-30T18:53:58;9.80;99.90
6174;DHT22;3120;48.796;9.796;2022-09-30T18:56:27;9.80;99.90
6174;DHT22;3120;48.796;9.796;2022-09-30T18:58:59;9.70;99.90
6174;DHT22;3120;48.796;9.796;2022-09-30T19:01:28;9.60;99.90
6174;DHT22;3120;48.796;9.796;2022-09-30T19:03:54;10.00;99.90
6174;DHT22;3120;48.796;9.796;2022-09-30T19:06:19;9.60;99.90
6174;DHT22;3120;48.796;9.796;2022-09-30T19:08:45;9.60;99.90
6174;DHT22;3120;48.796;9.796;2022-09-30T19:11:12;11.20;99.90
6174;DHT22;3120;48.796;9.796;2022-09-30T19:13:43;9.50;99.90
6174;DHT22;3120;48.796;9.796;2022-09-30T19:16:10;9.50;99.90
6174;DHT22;3120;48.796;9.796;2022-09-30T19:18:37;9.40;99.90
6174;DHT22;3120;48.796;9.796;2022-09-30T19:21:08;11.30;99.90
6174;DHT22;3120;48.796;9.796;2022-09-30T19:23:35;9.30;99.90
6174;DHT22;3120;48.796;9.796;2022-09-30T19:26:02;9.30;99.90
6174;DHT22;3120;48.796;9.796;2022-09-30T19:28:28;9.40;99.90
6174;DHT22;3120;48.796;9.796;2022-09-30T19:31:04;9.30;99.90
6174;DHT22;3120;48.796;9.796;2022-09-30T19:33:31;9.30;99.90
6174;DHT22;3120;48.796;9.796;2022-09-30T19:36:07;9.30;99.90
6174;DHT22;3120;48.796;9.796;2022-09-30T19:38:34;9.20;99.90
6174;DHT22;3120;48.796;9.796;2022-09-30T19:41:02;9.20;99.90
6174;DHT22;3120;48.796;9.796;2022-09-30T19:43:27;9.30;99.90
6174;DHT22;3120;48.796;9.796;2022-09-30T19:46:02;9.20;99.90
6174;DHT22;3120;48.796;9.796;2022-09-30T19:48:30;9.20;99.90
6174;DHT22;3120;48.796;9.796;2022-09-30T19:51:01;9.20;99.90
6174;DHT22;3120;48.796;9.796;2022-09-30T19:53:29;9.20;99.90
6174;DHT22;3120;48.796;9.796;2022-09-30T19:56:03;9.10;99.90
6174;DHT22;3120;48.796;9.796;2022-09-30T19:58:34;9.10;99.90
6174;DHT22;3120;48.796;9.796;2022-09-30T20:01:01;9.10;99.90
6174;DHT22;3120;48.796;9.796;2022-09-30T20:03:27;9.10;99.90